createdAt,value
2023-05-22T05:20:01.127Z,24.00
2023-05-22T05:22:03.191Z,24.00
2023-05-22T05:24:05.764Z,23.90
2023-05-22T05:26:07.384Z,23.90
2023-05-22T05:28:11.593Z,23.90
2023-05-22T05:30:13.361Z,24.00
2023-05-22T05:32:15.583Z,23.90
2023-05-22T05:34:17.262Z,23.90
2023-05-22T05:36:18.938Z,23.90
2023-05-22T05:38:20.556Z,23.90
2023-05-22T05:40:22.154Z,23.80
2023-05-22T05:42:23.866Z,23.80
2023-05-22T05:44:25.482Z,23.80
2023-05-22T05:46:27.187Z,23.80
2023-05-22T05:48:28.855Z,23.80
2023-05-22T05:50:30.496Z,23.80
2023-05-22T05:52:32.704Z,23.70
2023-05-22T05:54:34.371Z,23.70
2023-05-22T05:56:36.502Z,23.60
2023-05-22T05:58:38.129Z,23.60
2023-05-22T06:00:42.309Z,23.60
2023-05-22T06:02:44.137Z,23.50
2023-05-22T06:04:48.563Z,23.50
2023-05-22T06:06:50.207Z,23.50
2023-05-22T06:08:51.923Z,23.50
2023-05-22T06:10:53.570Z,23.60
2023-05-22T06:12:55.142Z,23.60
2023-05-22T06:14:56.828Z,23.60
2023-05-22T06:16:58.505Z,23.70
2023-05-22T06:19:00.615Z,23.70
2023-05-22T06:21:02.245Z,23.70
2023-05-22T06:23:03.818Z,23.70
2023-05-22T06:25:05.864Z,23.80
2023-05-22T06:27:07.529Z,23.80
2023-05-22T06:29:09.182Z,23.80
2023-05-22T06:31:10.842Z,23.80
2023-05-22T06:33:12.522Z,23.80
2023-05-22T06:35:14.276Z,23.80
2023-05-22T06:37:16.083Z,23.80
2023-05-22T06:39:18.376Z,23.80
2023-05-22T06:41:20.153Z,23.80
2023-05-22T06:43:21.798Z,23.90
2023-05-22T06:45:23.451Z,23.80
2023-05-22T06:47:25.147Z,23.80
2023-05-22T06:49:26.838Z,23.80
2023-05-22T06:51:29.392Z,23.90
2023-05-22T06:53:31.041Z,23.90
2023-05-22T06:55:32.979Z,23.90
2023-05-22T06:57:34.671Z,23.90
2023-05-22T06:59:36.244Z,23.90
2023-05-22T07:01:37.948Z,23.90
2023-05-22T07:03:39.573Z,23.90
2023-05-22T07:05:41.749Z,23.90
2023-05-22T07:07:43.955Z,23.90
2023-05-22T07:09:45.559Z,23.90
2023-05-22T07:11:47.129Z,23.90
2023-05-22T07:13:48.778Z,23.90
2023-05-22T07:15:50.486Z,23.90
2023-05-22T07:17:52.252Z,24.00
2023-05-22T07:19:54.042Z,24.00
2023-05-22T07:21:55.819Z,24.00
2023-05-22T07:23:57.430Z,24.00
2023-05-22T07:25:59.036Z,24.00
2023-05-22T07:28:02.025Z,24.00
2023-05-22T07:30:03.851Z,24.00
2023-05-22T07:32:05.844Z,24.00
2023-05-22T07:34:07.826Z,24.00
2023-05-22T07:36:09.482Z,24.00
2023-05-22T07:38:11.309Z,24.00
2023-05-22T07:40:12.982Z,24.00
2023-05-22T07:42:14.955Z,24.00
2023-05-22T07:44:16.572Z,24.10
2023-05-22T07:46:18.263Z,24.10
2023-05-22T07:48:19.939Z,24.00
2023-05-22T07:50:21.647Z,24.10
2023-05-22T07:52:23.897Z,24.10
2023-05-22T07:54:25.602Z,24.10
2023-05-22T07:56:27.327Z,24.10
2023-05-22T07:58:28.948Z,24.10
2023-05-22T08:00:31.199Z,24.10
2023-05-22T08:02:33.571Z,24.10
2023-05-22T08:04:35.519Z,24.10
2023-05-22T08:06:37.269Z,24.10
2023-05-22T08:08:40.143Z,24.10
2023-05-22T08:10:58.126Z,24.10
2023-05-22T08:13:06.290Z,24.10
2023-05-22T08:15:08.084Z,24.20
2023-05-22T08:17:10.204Z,24.10
2023-05-22T08:19:12.030Z,24.20
2023-05-22T08:21:13.694Z,24.20
2023-05-22T08:23:15.412Z,24.10
2023-05-22T08:25:17.215Z,24.20
2023-05-22T08:27:18.843Z,24.20
2023-05-22T08:29:20.756Z,24.20
2023-05-22T08:31:22.853Z,24.20
2023-05-22T08:33:24.518Z,24.20
2023-05-22T08:35:26.134Z,24.20
2023-05-22T08:37:27.756Z,24.20
2023-05-22T08:39:29.440Z,24.20
2023-05-22T08:41:31.052Z,24.20
2023-05-22T08:43:32.664Z,24.20
2023-05-22T08:45:34.385Z,24.20
2023-05-22T08:47:37.176Z,24.20
2023-05-22T08:49:39.907Z,24.20
2023-05-22T08:51:44.590Z,24.30
2023-05-22T08:53:47.907Z,24.30
2023-05-22T08:55:49.748Z,24.30
2023-05-22T08:57:52.372Z,24.30
2023-05-22T08:59:54.254Z,24.30
2023-05-22T09:01:58.000Z,24.30
2023-05-22T09:04:01.078Z,24.30
2023-05-22T09:06:03.245Z,24.30
2023-05-22T09:08:15.997Z,24.30
2023-05-22T09:10:21.188Z,24.30
2023-05-22T09:12:22.873Z,24.30
2023-05-22T09:14:25.398Z,24.40
2023-05-22T09:16:27.069Z,24.40
2023-05-22T09:18:29.622Z,24.40
2023-05-22T09:20:35.212Z,24.40
2023-05-22T09:22:40.854Z,24.40
2023-05-22T09:24:43.387Z,24.40
2023-05-22T09:26:44.998Z,24.40
2023-05-22T09:28:47.143Z,24.40
2023-05-22T09:30:49.890Z,24.50
2023-05-22T09:32:51.595Z,24.50
2023-05-22T09:34:53.703Z,24.50
2023-05-22T09:37:01.625Z,24.50
2023-05-22T09:39:04.489Z,24.50
2023-05-22T09:41:06.193Z,24.50
2023-05-22T09:43:08.773Z,24.50
2023-05-22T09:45:10.551Z,24.50
2023-05-22T09:47:12.358Z,24.60
2023-05-22T09:49:16.471Z,24.60
2023-05-22T09:51:21.319Z,24.60
2023-05-22T09:53:27.033Z,24.60
2023-05-22T09:55:28.972Z,24.60
2023-05-22T09:57:32.267Z,24.70
2023-05-22T09:59:35.051Z,24.70
2023-05-22T10:01:38.641Z,24.70
2023-05-22T10:03:40.906Z,24.80
2023-05-22T10:05:50.187Z,24.80
2023-05-22T10:07:56.129Z,24.80
2023-05-22T10:10:01.990Z,24.80
2023-05-22T10:12:05.957Z,24.80
2023-05-22T10:14:08.632Z,24.80
2023-05-22T10:16:12.164Z,24.90
2023-05-22T10:18:14.429Z,24.90
2023-05-22T10:20:16.668Z,24.90
2023-05-22T10:22:20.890Z,24.90
2023-05-22T10:24:23.373Z,24.90
2023-05-22T10:26:25.246Z,25.00
2023-05-22T10:28:37.923Z,25.00
2023-05-22T10:30:39.710Z,25.00
2023-05-22T10:32:44.777Z,25.00
2023-05-22T10:35:04.951Z,25.00
2023-05-22T10:37:19.244Z,25.00
2023-05-22T10:39:28.418Z,25.10
2023-05-22T10:41:31.078Z,25.10
2023-05-22T10:43:32.813Z,25.10
2023-05-22T10:45:34.601Z,25.10
2023-05-22T10:47:36.592Z,25.10
2023-05-22T10:49:39.125Z,25.10
2023-05-22T10:51:40.800Z,25.10
2023-05-22T10:53:43.095Z,25.10
2023-05-22T10:56:07.978Z,25.20
2023-05-22T10:58:13.201Z,25.20
2023-05-22T11:00:19.301Z,25.20
2023-05-22T11:02:21.984Z,25.20
2023-05-22T11:04:25.114Z,25.20
2023-05-22T11:06:29.670Z,25.20
2023-05-22T11:08:34.301Z,25.20
2023-05-22T11:10:59.269Z,25.20
2023-05-22T11:13:19.402Z,25.20
2023-05-22T11:15:30.140Z,25.20
2023-05-22T11:17:34.197Z,25.20
2023-05-22T11:19:36.013Z,25.30
2023-05-22T11:21:44.910Z,25.20
2023-05-22T11:23:47.163Z,25.20
2023-05-22T11:25:48.736Z,25.20
2023-05-22T11:27:50.522Z,25.20
2023-05-22T11:29:52.457Z,25.20
2023-05-22T11:31:54.373Z,25.20
2023-05-22T11:33:56.061Z,25.20
2023-05-22T11:35:57.799Z,25.30
2023-05-22T11:37:59.575Z,25.30
2023-05-22T11:40:04.446Z,25.30
2023-05-22T11:42:06.243Z,25.30
2023-05-22T11:44:08.165Z,25.30
2023-05-22T11:46:10.913Z,25.30
2023-05-22T11:48:15.288Z,25.30
2023-05-22T11:50:29.182Z,25.40
2023-05-22T11:52:36.464Z,25.40
2023-05-22T11:54:38.830Z,25.40
2023-05-22T11:56:41.496Z,25.40
2023-05-22T11:58:43.078Z,25.40
2023-05-22T12:00:44.794Z,25.40
2023-05-22T12:02:47.551Z,25.40
2023-05-22T12:04:54.124Z,25.40
2023-05-22T12:06:56.058Z,25.50
2023-05-22T12:08:57.743Z,25.40
2023-05-22T12:10:59.385Z,25.40
2023-05-22T12:13:01.097Z,25.50
2023-05-22T12:15:05.024Z,25.50
2023-05-22T12:17:06.705Z,25.50
2023-05-22T12:19:09.469Z,25.50
2023-05-22T12:21:11.210Z,25.50
2023-05-22T12:23:20.689Z,25.50
2023-05-22T12:25:24.817Z,25.50
2023-05-22T12:27:31.646Z,25.50
2023-05-22T12:29:34.757Z,25.50
2023-05-22T12:31:37.390Z,25.50
2023-05-22T12:33:39.403Z,25.50
2023-05-22T12:35:41.650Z,25.40
2023-05-22T12:37:50.196Z,25.40
2023-05-22T12:39:55.635Z,25.40
2023-05-22T12:41:57.303Z,25.40
2023-05-22T12:43:58.886Z,25.40
2023-05-22T12:46:02.734Z,25.40
2023-05-22T12:48:04.653Z,25.40
2023-05-22T12:50:06.690Z,25.40
2023-05-22T12:52:08.333Z,25.40
2023-05-22T12:54:10.052Z,25.40
2023-05-22T12:56:11.942Z,25.40
2023-05-22T12:58:13.527Z,25.40
2023-05-22T13:00:15.367Z,25.30
2023-05-22T13:02:17.058Z,25.40
2023-05-22T13:04:19.514Z,25.30
2023-05-22T13:06:21.139Z,25.30
2023-05-22T13:08:23.597Z,25.40
2023-05-22T13:10:25.240Z,25.30
2023-05-22T13:12:27.294Z,25.30
2023-05-22T13:14:28.947Z,25.30
2023-05-22T13:16:31.101Z,25.30
2023-05-22T13:18:32.704Z,25.30
2023-05-22T13:20:37.029Z,25.30
2023-05-22T13:22:38.898Z,25.30
2023-05-22T13:24:40.608Z,25.30
2023-05-22T13:26:42.232Z,25.30
2023-05-22T13:28:43.813Z,25.30
2023-05-22T13:30:45.447Z,25.30
2023-05-22T13:32:47.201Z,25.30
2023-05-22T13:34:48.951Z,25.30
2023-05-22T13:36:50.714Z,25.30
2023-05-22T13:38:52.368Z,25.30
2023-05-22T13:40:54.009Z,25.30
2023-05-22T13:42:55.930Z,25.30
2023-05-22T13:44:57.579Z,25.30
2023-05-22T13:46:59.663Z,25.30
2023-05-22T13:49:01.354Z,25.30
2023-05-22T13:51:03.100Z,25.30
2023-05-22T13:53:04.747Z,25.30
2023-05-22T13:55:06.730Z,25.30
2023-05-22T13:57:08.403Z,25.30
2023-05-22T13:59:09.979Z,25.40
2023-05-22T14:01:11.638Z,25.40
2023-05-22T14:03:17.445Z,25.40
2023-05-22T14:05:19.449Z,25.40
2023-05-22T14:07:21.078Z,25.40
2023-05-22T14:09:23.026Z,25.40
2023-05-22T14:11:24.606Z,25.40
2023-05-22T14:13:26.260Z,25.40
2023-05-22T14:15:27.967Z,25.40
2023-05-22T14:17:29.594Z,25.40
2023-05-22T14:19:31.310Z,25.40
2023-05-22T14:21:33.046Z,25.40
2023-05-22T14:23:34.642Z,25.40
2023-05-22T14:25:36.281Z,25.50
2023-05-22T14:27:37.916Z,25.40
2023-05-22T14:29:39.577Z,25.40
2023-05-22T14:31:45.602Z,25.40
2023-05-22T14:33:47.195Z,25.40
2023-05-22T14:35:50.316Z,25.40
2023-05-22T14:37:51.997Z,25.40
2023-05-22T14:39:54.443Z,25.40
2023-05-22T14:41:56.112Z,25.30
2023-05-22T14:43:57.738Z,25.30
2023-05-22T14:45:59.863Z,25.30
2023-05-22T14:48:01.579Z,25.30
2023-05-22T14:50:18.206Z,25.40
2023-05-22T14:52:21.677Z,25.30
2023-05-22T14:54:23.837Z,25.30
2023-05-22T14:56:26.482Z,25.30
2023-05-22T14:58:28.063Z,25.30
2023-05-22T15:00:29.656Z,25.30
2023-05-22T15:02:31.256Z,25.30
2023-05-22T15:04:32.913Z,25.30
2023-05-22T15:06:35.546Z,25.30
2023-05-22T15:08:37.329Z,25.30
2023-05-22T15:10:38.994Z,25.30
2023-05-22T15:12:40.820Z,25.30
2023-05-22T15:14:42.515Z,25.30
2023-05-22T15:16:44.288Z,25.30
2023-05-22T15:18:46.118Z,25.30
2023-05-22T15:20:48.198Z,25.30
2023-05-22T15:22:49.782Z,25.30
2023-05-22T15:25:02.877Z,25.30
2023-05-22T15:27:04.597Z,25.30
2023-05-22T15:29:06.292Z,25.30
2023-05-22T15:31:08.270Z,25.30
2023-05-22T15:33:09.944Z,25.20
2023-05-22T15:35:13.854Z,25.30
2023-05-22T15:37:15.602Z,25.30
2023-05-22T15:39:17.639Z,25.30
2023-05-22T15:41:19.340Z,25.20
2023-05-22T15:43:20.937Z,25.20
2023-05-22T15:45:22.565Z,25.30
2023-05-22T15:47:24.170Z,25.30
2023-05-22T15:49:26.923Z,25.30
2023-05-22T15:51:29.982Z,25.30
2023-05-22T15:53:31.612Z,25.30
2023-05-22T15:55:36.550Z,25.40
2023-05-22T15:57:38.312Z,25.40
2023-05-22T15:59:39.908Z,25.40
2023-05-22T16:01:41.557Z,25.40
2023-05-22T16:03:43.318Z,25.40
2023-05-22T16:05:46.923Z,25.40
2023-05-22T16:07:48.528Z,25.50
2023-05-22T16:09:50.347Z,25.50
2023-05-22T16:11:51.990Z,25.50
2023-05-22T16:13:53.566Z,25.50
2023-05-22T16:15:55.225Z,25.50
2023-05-22T16:17:57.245Z,25.60
2023-05-22T16:19:58.943Z,25.60
2023-05-22T16:22:00.705Z,25.60
2023-05-22T16:24:03.487Z,25.70
2023-05-22T16:26:05.119Z,25.70
2023-05-22T16:28:06.737Z,25.70
2023-05-22T16:30:08.538Z,25.70
2023-05-22T16:32:10.140Z,25.60
2023-05-22T16:34:11.756Z,25.60
2023-05-22T16:36:13.404Z,25.60
2023-05-22T16:38:14.990Z,25.60
2023-05-22T16:40:17.471Z,25.50
2023-05-22T16:42:19.117Z,25.50
2023-05-22T16:44:20.861Z,25.50
2023-05-22T16:46:22.545Z,25.50
2023-05-22T16:48:24.345Z,25.50
2023-05-22T16:50:26.089Z,25.50
2023-05-22T16:52:27.921Z,25.40
2023-05-22T16:54:29.561Z,25.50
2023-05-22T16:56:32.677Z,25.50
2023-05-22T16:58:34.319Z,25.50
2023-05-22T17:00:36.622Z,25.50
2023-05-22T17:02:38.583Z,25.50
2023-05-22T17:04:41.035Z,25.40
2023-05-22T17:06:43.342Z,25.40
2023-05-22T17:08:44.998Z,25.40
2023-05-22T17:10:46.620Z,25.40
2023-05-22T17:12:48.245Z,25.40
2023-05-22T17:14:49.801Z,25.40
2023-05-22T17:16:51.497Z,25.30
2023-05-22T17:18:54.789Z,25.30
2023-05-22T17:20:57.387Z,25.30
2023-05-22T17:22:59.068Z,25.30
2023-05-22T17:25:00.849Z,25.30
2023-05-22T17:27:03.484Z,25.30
2023-05-22T17:29:05.496Z,25.30
2023-05-22T17:31:07.878Z,25.30
2023-05-22T17:33:09.613Z,25.30
2023-05-22T17:35:11.303Z,25.20
2023-05-22T17:37:12.974Z,25.20
2023-05-22T17:39:14.636Z,25.20
2023-05-22T17:41:16.416Z,25.20
2023-05-22T17:43:21.485Z,25.10
2023-05-22T17:45:23.053Z,25.10
2023-05-22T17:47:24.636Z,25.10
2023-05-22T17:49:26.260Z,25.10
2023-05-22T17:51:27.842Z,25.10
2023-05-22T17:53:34.343Z,25.10
2023-05-22T17:55:36.772Z,25.10
2023-05-22T17:57:38.606Z,25.00
2023-05-22T17:59:40.608Z,25.00
2023-05-22T18:01:42.374Z,25.00
2023-05-22T18:03:45.835Z,25.10
2023-05-22T18:05:48.384Z,25.00
2023-05-22T18:07:50.010Z,25.00
2023-05-22T18:09:51.633Z,25.10
2023-05-22T18:11:53.497Z,25.10
2023-05-22T18:13:55.140Z,25.10
2023-05-22T18:15:56.800Z,25.00
2023-05-22T18:17:58.804Z,25.00
2023-05-22T18:20:00.826Z,25.10
2023-05-22T18:22:02.423Z,25.00
2023-05-22T18:24:04.125Z,25.00
2023-05-22T18:26:06.653Z,25.00
2023-05-22T18:28:08.361Z,24.90
2023-05-22T18:30:10.373Z,24.90
2023-05-22T18:32:13.590Z,24.90
2023-05-22T18:34:15.417Z,24.90
2023-05-22T18:36:17.029Z,24.90
2023-05-22T18:38:18.811Z,24.90
2023-05-22T18:40:20.422Z,24.80
2023-05-22T18:42:22.274Z,24.90
2023-05-22T18:44:23.908Z,24.80
2023-05-22T18:46:25.527Z,24.80
2023-05-22T18:48:28.173Z,24.70
2023-05-22T18:50:30.065Z,24.70
2023-05-22T18:52:31.721Z,24.70
2023-05-22T18:54:33.575Z,24.60
2023-05-22T18:56:36.656Z,24.60
2023-05-22T18:58:41.284Z,24.60
2023-05-22T19:00:45.209Z,24.70
2023-05-22T19:02:47.516Z,24.70
2023-05-22T19:04:50.420Z,24.70
2023-05-22T19:06:53.816Z,24.70
2023-05-22T19:08:55.505Z,24.80
2023-05-22T19:10:57.570Z,24.80
2023-05-22T19:12:59.213Z,24.80
2023-05-22T19:15:00.936Z,24.80
2023-05-22T19:17:02.789Z,24.80
2023-05-22T19:19:06.690Z,24.90
2023-05-22T19:21:08.370Z,24.90
2023-05-22T19:23:11.388Z,24.90
2023-05-22T19:25:13.031Z,24.90
2023-05-22T19:27:14.680Z,24.90
